Terminal Aerodrome Forecast
Issued by NWS Green Bay, WI

Home | Current Version | Previous Version | Graphics & Text | Print | Product List | Glossary On
Versions: 1 2 3 4 5 6 7 8 9 10 11 12 13 14 15 16 17 18 19 20 21 22 23 24 25 26 27 28 29 30
000
FTUS43 KGRB 082200 AAA
TAFGRB
TAF AMD
KGRB 082230Z 0823/0918 32010G20KT P6SM VCSH BKN050
      TEMPO 0823/0901 4SM SHRA BKN035
     FM090300 31004KT P6SM SCT045 SCT100
     FM091500 30009G15KT P6SM BKN035=

USA.gov is the U.S. government's official web portal to all federal, state and local government web resources and services.